createdAt,value
2023-03-31T00:00:43.857Z,4.60
2023-03-31T00:03:50.046Z,4.10
2023-03-31T00:06:57.554Z,5.13
2023-03-31T00:10:16.602Z,5.60
2023-03-31T00:13:25.101Z,4.97
2023-03-31T00:16:31.485Z,6.17
2023-03-31T00:19:37.933Z,4.30
2023-03-31T00:22:46.854Z,5.17
2023-03-31T00:25:53.088Z,5.43
2023-03-31T00:29:00.500Z,5.57
2023-03-31T00:32:07.390Z,5.33
2023-03-31T00:35:13.934Z,4.73
2023-03-31T00:38:29.163Z,5.93
2023-03-31T00:41:35.854Z,5.97
2023-03-31T00:45:21.795Z,3.90
2023-03-31T00:48:28.214Z,2.57
2023-03-31T00:51:35.892Z,4.33
2023-03-31T00:54:45.633Z,5.10
2023-03-31T00:57:53.919Z,4.77
2023-03-31T01:01:02.461Z,4.83
2023-03-31T01:04:10.552Z,4.03
2023-03-31T01:07:23.253Z,3.50
2023-03-31T01:10:34.148Z,3.07
2023-03-31T01:13:42.387Z,3.53
2023-03-31T01:16:48.685Z,3.20
2023-03-31T01:20:11.384Z,3.33
2023-03-31T01:23:57.329Z,4.10
2023-03-31T01:27:23.042Z,4.57
2023-03-31T01:30:52.002Z,5.23
2023-03-31T01:34:25.264Z,4.17
2023-03-31T01:38:01.262Z,3.80
2023-03-31T01:41:19.345Z,4.30
2023-03-31T01:44:33.725Z,4.33
2023-03-31T01:47:48.352Z,5.20
2023-03-31T01:50:58.657Z,5.43
2023-03-31T01:54:18.545Z,3.97
2023-03-31T01:57:33.726Z,2.30
2023-03-31T02:00:44.837Z,3.97
2023-03-31T02:03:56.133Z,3.83
2023-03-31T02:07:09.108Z,3.33
2023-03-31T02:10:18.644Z,3.03
2023-03-31T02:13:28.724Z,3.40
2023-03-31T02:16:42.000Z,3.23
2023-03-31T02:19:52.195Z,3.30
2023-03-31T02:22:59.112Z,3.33
2023-03-31T02:26:09.714Z,3.77
2023-03-31T02:29:17.362Z,4.60
2023-03-31T02:32:26.505Z,11.13
2023-03-31T02:35:36.896Z,8.97
2023-03-31T02:38:47.534Z,5.67
2023-03-31T02:41:54.488Z,4.17
2023-03-31T02:45:06.033Z,5.73
2023-03-31T02:48:17.420Z,5.20
2023-03-31T02:52:08.891Z,5.63
2023-03-31T02:55:30.786Z,6.90
2023-03-31T02:58:57.533Z,5.97
2023-03-31T03:02:19.398Z,10.53
2023-03-31T03:05:35.777Z,12.00
2023-03-31T03:09:04.454Z,11.60
2023-03-31T03:12:17.105Z,13.20
2023-03-31T03:15:30.164Z,26.07
2023-03-31T03:18:38.002Z,10.17
2023-03-31T03:21:44.320Z,6.30
2023-03-31T03:24:50.986Z,5.60
2023-03-31T03:27:57.615Z,5.43
2023-03-31T03:31:03.836Z,4.60
2023-03-31T03:34:11.840Z,13.77
2023-03-31T03:37:18.044Z,18.73
2023-03-31T03:40:24.015Z,20.07
2023-03-31T03:43:30.191Z,16.80
2023-03-31T03:46:36.432Z,29.20
2023-03-31T03:49:44.098Z,23.07
2023-03-31T03:52:50.225Z,18.27
2023-03-31T03:55:56.732Z,12.97
2023-03-31T03:59:02.974Z,6.23
2023-03-31T04:02:08.894Z,6.43
2023-03-31T04:05:16.713Z,5.83
2023-03-31T04:08:22.886Z,20.83
2023-03-31T04:11:28.810Z,8.57
2023-03-31T04:14:35.029Z,6.83
2023-03-31T04:17:41.313Z,6.27
2023-03-31T04:20:54.865Z,8.20
2023-03-31T04:24:02.028Z,8.40
2023-03-31T04:27:08.527Z,10.77
2023-03-31T04:30:23.047Z,7.97
2023-03-31T04:33:29.584Z,16.97
2023-03-31T04:36:42.682Z,18.77
2023-03-31T04:39:50.780Z,15.43
2023-03-31T04:42:56.824Z,10.87
2023-03-31T04:46:03.547Z,7.87
2023-03-31T04:49:10.121Z,7.67
2023-03-31T04:52:17.869Z,6.53
2023-03-31T04:55:24.220Z,16.27
2023-03-31T04:58:30.511Z,18.60
2023-03-31T05:01:37.492Z,16.50
2023-03-31T05:04:43.959Z,34.20
2023-03-31T05:07:51.378Z,32.00
2023-03-31T05:10:58.002Z,21.40
2023-03-31T05:14:04.325Z,17.93
2023-03-31T05:17:10.660Z,17.50
2023-03-31T05:20:17.017Z,17.73
2023-03-31T05:23:24.870Z,19.90
2023-03-31T05:26:31.262Z,10.80
2023-03-31T05:29:37.304Z,8.13
2023-03-31T05:32:44.054Z,10.77
2023-03-31T05:35:50.674Z,11.37
2023-03-31T05:38:58.471Z,13.27
2023-03-31T05:42:06.082Z,14.13
2023-03-31T05:45:12.710Z,14.73
2023-03-31T05:48:19.204Z,10.37
2023-03-31T05:51:25.645Z,10.93
2023-03-31T05:54:33.421Z,12.50
2023-03-31T05:57:39.982Z,14.47
2023-03-31T06:00:46.198Z,8.43
2023-03-31T06:03:52.836Z,5.10
2023-03-31T06:06:59.497Z,11.43
2023-03-31T06:10:10.900Z,13.80
2023-03-31T06:13:17.787Z,15.17
2023-03-31T06:16:23.824Z,8.43
2023-03-31T06:19:30.275Z,7.83
2023-03-31T06:22:36.622Z,8.23
2023-03-31T06:25:50.971Z,6.23
2023-03-31T06:28:58.352Z,45.20
2023-03-31T06:32:05.300Z,7.53
2023-03-31T06:35:11.974Z,9.90
2023-03-31T06:38:18.619Z,17.53
2023-03-31T06:41:26.727Z,7.67
2023-03-31T06:44:33.213Z,7.27
2023-03-31T06:47:41.618Z,6.30
2023-03-31T06:50:48.200Z,6.00
2023-03-31T06:53:54.417Z,8.17
2023-03-31T06:57:02.158Z,5.07
2023-03-31T07:00:10.242Z,5.53
2023-03-31T07:03:19.357Z,4.83
2023-03-31T07:06:25.800Z,5.60
2023-03-31T07:09:31.859Z,5.37
2023-03-31T07:12:39.271Z,5.67
2023-03-31T07:15:46.548Z,4.17
2023-03-31T07:18:54.976Z,5.00
2023-03-31T07:22:01.514Z,10.33
2023-03-31T07:25:08.428Z,3.67
2023-03-31T07:28:16.421Z,5.13
2023-03-31T07:31:22.807Z,7.83
2023-03-31T07:34:29.029Z,7.73
2023-03-31T07:37:37.184Z,3.40
2023-03-31T07:40:53.127Z,7.30
2023-03-31T07:44:10.132Z,2.43
2023-03-31T07:47:16.687Z,4.90
2023-03-31T07:50:23.822Z,2.77
2023-03-31T07:53:30.149Z,6.37
2023-03-31T07:56:36.552Z,4.17
2023-03-31T07:59:44.103Z,3.30
2023-03-31T08:02:50.660Z,3.07
2023-03-31T08:05:57.195Z,5.40
2023-03-31T08:09:05.279Z,4.27
2023-03-31T08:12:11.741Z,3.13
2023-03-31T08:15:19.696Z,3.73
2023-03-31T08:18:26.109Z,3.90
2023-03-31T08:21:32.282Z,5.53
2023-03-31T08:24:38.307Z,4.57
2023-03-31T08:27:44.331Z,5.13
2023-03-31T08:30:52.079Z,3.03
2023-03-31T08:33:58.639Z,3.97
2023-03-31T08:37:05.951Z,4.43
2023-03-31T08:40:18.025Z,5.27
2023-03-31T08:43:30.678Z,3.53
2023-03-31T08:46:40.014Z,5.67
2023-03-31T08:49:51.227Z,5.37
2023-03-31T08:53:05.371Z,4.60
2023-03-31T08:56:18.185Z,5.27
2023-03-31T08:59:31.240Z,5.60
2023-03-31T09:02:48.773Z,4.40
2023-03-31T09:06:02.377Z,4.90
2023-03-31T09:09:12.607Z,6.07
2023-03-31T09:12:22.332Z,8.47
2023-03-31T09:15:31.056Z,5.90
2023-03-31T09:18:40.814Z,5.03
2023-03-31T09:21:50.958Z,40.87
2023-03-31T09:25:02.740Z,27.93
2023-03-31T09:28:15.590Z,10.30
2023-03-31T09:31:23.756Z,6.00
2023-03-31T09:34:36.595Z,3.97
2023-03-31T09:37:42.823Z,7.90
2023-03-31T09:40:49.775Z,5.87
2023-03-31T09:43:56.667Z,4.83
2023-03-31T09:47:04.219Z,7.87
2023-03-31T09:50:13.434Z,4.70
2023-03-31T09:53:25.106Z,4.33
2023-03-31T09:56:46.307Z,6.13
2023-03-31T09:59:53.478Z,3.80
2023-03-31T10:03:07.849Z,5.30
2023-03-31T10:06:18.324Z,3.77
2023-03-31T10:09:29.064Z,5.07
2023-03-31T10:12:36.414Z,3.27
2023-03-31T10:15:43.463Z,4.33
2023-03-31T10:18:50.085Z,3.97
2023-03-31T10:22:02.225Z,4.40
2023-03-31T10:25:12.244Z,3.07
2023-03-31T10:28:21.194Z,3.10
2023-03-31T10:31:35.781Z,4.80
2023-03-31T10:34:44.160Z,5.73
2023-03-31T10:37:55.994Z,5.07
2023-03-31T10:41:02.898Z,2.60
2023-03-31T10:44:28.772Z,5.93
2023-03-31T10:47:36.489Z,2.37
2023-03-31T10:50:44.519Z,3.50
2023-03-31T10:53:52.227Z,3.63
2023-03-31T10:57:01.727Z,3.23
2023-03-31T11:00:18.542Z,3.50
2023-03-31T11:04:01.882Z,2.70
2023-03-31T11:07:17.939Z,4.70
2023-03-31T11:10:49.005Z,2.33
2023-03-31T11:14:01.723Z,3.43
2023-03-31T11:17:19.123Z,3.30
2023-03-31T11:20:33.697Z,3.03
2023-03-31T11:23:43.746Z,7.77
2023-03-31T11:27:00.920Z,3.37
2023-03-31T11:30:16.586Z,2.60
2023-03-31T11:33:55.132Z,4.10
2023-03-31T11:37:18.405Z,2.03
2023-03-31T11:40:41.107Z,2.40
2023-03-31T11:43:51.761Z,2.80
2023-03-31T11:47:01.933Z,3.00
2023-03-31T11:50:13.882Z,2.30
2023-03-31T11:53:26.972Z,1.60
2023-03-31T11:56:37.284Z,4.17
2023-03-31T11:59:45.384Z,3.23
2023-03-31T12:02:57.793Z,3.77
2023-03-31T12:06:09.683Z,3.20
2023-03-31T12:09:26.112Z,2.80
2023-03-31T12:12:36.416Z,3.03
2023-03-31T12:15:47.384Z,3.70
2023-03-31T12:19:04.337Z,5.93
2023-03-31T12:22:16.728Z,3.03
2023-03-31T12:25:26.701Z,20.97
2023-03-31T12:28:33.947Z,5.13
2023-03-31T12:31:43.765Z,3.13
2023-03-31T12:34:56.700Z,5.60
2023-03-31T12:38:20.681Z,3.53
2023-03-31T12:41:38.798Z,7.37
2023-03-31T12:44:55.983Z,6.13
2023-03-31T12:48:29.743Z,11.53
2023-03-31T12:51:52.084Z,5.37
2023-03-31T12:55:25.470Z,4.20
2023-03-31T12:58:47.270Z,3.03
2023-03-31T13:02:23.400Z,7.40
2023-03-31T13:05:48.407Z,8.60
2023-03-31T13:08:57.036Z,8.47
2023-03-31T13:12:08.834Z,6.17
2023-03-31T13:15:16.829Z,6.33
2023-03-31T13:18:24.667Z,9.27
2023-03-31T13:21:30.817Z,7.87
2023-03-31T13:24:37.162Z,9.63
2023-03-31T13:27:51.029Z,7.00
2023-03-31T13:31:02.290Z,5.93
2023-03-31T13:34:09.491Z,8.13
2023-03-31T13:37:24.222Z,6.50
2023-03-31T13:40:55.761Z,4.40
2023-03-31T13:44:40.679Z,4.90
2023-03-31T13:48:00.036Z,5.47
2023-03-31T13:51:23.879Z,3.70
2023-03-31T13:55:10.122Z,4.60
2023-03-31T13:58:53.858Z,4.87
2023-03-31T14:02:37.856Z,4.13
2023-03-31T14:05:48.874Z,6.83
2023-03-31T14:08:59.854Z,7.80
2023-03-31T14:12:23.896Z,6.77
2023-03-31T14:15:31.359Z,5.70
2023-03-31T14:18:43.655Z,11.93
2023-03-31T14:21:59.666Z,4.60
2023-03-31T14:25:15.872Z,3.90
2023-03-31T14:28:39.773Z,2.70
2023-03-31T14:31:53.868Z,5.23
2023-03-31T14:35:15.442Z,8.83
2023-03-31T14:38:24.891Z,4.17
2023-03-31T14:41:32.111Z,7.67
2023-03-31T14:44:38.945Z,5.03
2023-03-31T14:47:55.555Z,4.97
2023-03-31T14:51:04.185Z,6.77
2023-03-31T14:54:19.526Z,8.20
2023-03-31T14:57:32.034Z,17.20
2023-03-31T15:00:41.159Z,7.20
2023-03-31T15:03:48.435Z,5.87
2023-03-31T15:06:55.076Z,6.13
2023-03-31T15:10:03.970Z,13.40
2023-03-31T15:13:12.706Z,6.77
2023-03-31T15:16:28.536Z,7.40
2023-03-31T15:19:36.635Z,33.33
2023-03-31T15:22:43.145Z,9.30
2023-03-31T15:25:51.085Z,7.87
2023-03-31T15:29:02.668Z,6.73
2023-03-31T15:32:16.401Z,3.30
2023-03-31T15:35:25.939Z,4.07
2023-03-31T15:38:33.087Z,2.50
2023-03-31T15:41:41.067Z,28.70
2023-03-31T15:44:48.667Z,5.57
2023-03-31T15:47:56.166Z,6.50
2023-03-31T15:51:04.302Z,16.53
2023-03-31T15:54:31.220Z,7.27
2023-03-31T15:57:38.718Z,20.23
2023-03-31T16:00:47.554Z,13.93
2023-03-31T16:03:54.617Z,9.37
2023-03-31T16:07:07.798Z,9.43
2023-03-31T16:10:19.501Z,8.07
2023-03-31T16:13:30.575Z,7.60
2023-03-31T16:16:38.184Z,7.17
2023-03-31T16:19:47.823Z,16.83
2023-03-31T16:22:56.050Z,13.73
2023-03-31T16:26:03.406Z,16.70
2023-03-31T16:29:11.042Z,12.00
2023-03-31T16:32:20.881Z,14.67
2023-03-31T16:35:32.230Z,21.47
2023-03-31T16:38:38.276Z,18.43
2023-03-31T16:41:44.242Z,22.53
2023-03-31T16:45:09.641Z,21.73
2023-03-31T16:48:19.952Z,40.50
2023-03-31T16:51:26.324Z,38.27
2023-03-31T16:54:32.582Z,55.17
2023-03-31T16:57:39.120Z,48.03
2023-03-31T17:00:47.482Z,35.87
2023-03-31T17:03:54.090Z,51.10
2023-03-31T17:07:00.238Z,54.53
2023-03-31T17:10:07.828Z,32.97
2023-03-31T17:13:14.445Z,27.30
2023-03-31T17:16:29.399Z,26.63
2023-03-31T17:19:46.634Z,23.33
2023-03-31T17:22:53.146Z,22.67
2023-03-31T17:25:59.257Z,34.83
2023-03-31T17:29:05.931Z,37.37
2023-03-31T17:32:15.016Z,53.30
2023-03-31T17:35:22.657Z,34.93
2023-03-31T17:38:29.201Z,33.10
2023-03-31T17:41:35.489Z,26.57
2023-03-31T17:44:42.414Z,28.60
2023-03-31T17:47:50.035Z,10.80
2023-03-31T17:50:56.705Z,9.10
2023-03-31T17:54:04.102Z,14.27
2023-03-31T17:57:10.511Z,13.53
2023-03-31T18:00:17.664Z,11.67
2023-03-31T18:03:25.305Z,12.43
2023-03-31T18:06:31.958Z,15.20
2023-03-31T18:09:38.461Z,11.83
2023-03-31T18:12:44.820Z,29.03
2023-03-31T18:15:53.132Z,24.10
2023-03-31T18:19:01.886Z,22.50
2023-03-31T18:22:08.130Z,41.40
2023-03-31T18:25:15.509Z,54.47
2023-03-31T18:28:22.327Z,60.10
2023-03-31T18:31:28.903Z,75.40
2023-03-31T18:34:36.814Z,55.67
2023-03-31T18:37:43.105Z,35.27
2023-03-31T18:40:50.872Z,40.53
2023-03-31T18:43:57.274Z,40.97
2023-03-31T18:47:03.712Z,40.17
2023-03-31T18:50:14.084Z,41.83
2023-03-31T18:53:21.022Z,42.63
2023-03-31T18:56:27.328Z,47.63
2023-03-31T18:59:33.771Z,58.40
2023-03-31T19:02:40.191Z,50.47
2023-03-31T19:05:48.398Z,47.20
2023-03-31T19:08:57.107Z,56.93
2023-03-31T19:12:03.640Z,62.43
2023-03-31T19:15:11.252Z,58.93
2023-03-31T19:18:17.500Z,59.67
2023-03-31T19:21:25.356Z,63.30
2023-03-31T19:24:31.491Z,50.40
2023-03-31T19:27:37.969Z,45.97
2023-03-31T19:30:44.445Z,47.80
2023-03-31T19:33:51.088Z,44.63
2023-03-31T19:36:59.064Z,47.57
2023-03-31T19:40:06.039Z,42.63
2023-03-31T19:43:20.888Z,35.93
2023-03-31T19:46:27.592Z,31.57
2023-03-31T19:49:34.512Z,32.47
2023-03-31T19:52:42.423Z,30.20
2023-03-31T19:55:57.171Z,24.67
2023-03-31T19:59:03.707Z,23.00
2023-03-31T20:02:13.975Z,20.23
2023-03-31T20:05:20.712Z,27.07
2023-03-31T20:08:28.441Z,29.13
2023-03-31T20:11:34.747Z,35.90
2023-03-31T20:14:40.802Z,33.07
2023-03-31T20:17:47.414Z,44.40
2023-03-31T20:20:53.503Z,52.93
2023-03-31T20:24:01.491Z,49.20
2023-03-31T20:27:07.521Z,43.03
2023-03-31T20:30:14.070Z,39.10
2023-03-31T20:33:20.129Z,29.33
2023-03-31T20:36:28.965Z,20.87
2023-03-31T20:39:37.713Z,41.93
2023-03-31T20:42:43.960Z,34.70
2023-03-31T20:45:54.942Z,41.20
2023-03-31T20:49:01.194Z,47.57
2023-03-31T20:52:07.257Z,45.80
2023-03-31T20:55:15.286Z,62.47
2023-03-31T20:58:21.847Z,51.97
2023-03-31T21:01:29.848Z,49.07
2023-03-31T21:04:36.251Z,39.43
2023-03-31T21:07:42.836Z,34.50
2023-03-31T21:10:50.755Z,33.17
2023-03-31T21:13:57.078Z,43.20
2023-03-31T21:17:03.602Z,62.83
2023-03-31T21:20:11.223Z,47.13
2023-03-31T21:23:17.735Z,42.23
2023-03-31T21:26:25.996Z,40.07
2023-03-31T21:29:32.302Z,31.80
2023-03-31T21:32:38.780Z,40.83
2023-03-31T21:35:44.967Z,28.63
2023-03-31T21:38:53.257Z,28.30
2023-03-31T21:42:00.967Z,26.50
2023-03-31T21:45:08.208Z,28.97
2023-03-31T21:48:14.101Z,27.33
2023-03-31T21:51:22.062Z,20.00
2023-03-31T21:54:28.140Z,16.80
2023-03-31T21:57:35.988Z,19.60
2023-03-31T22:00:42.298Z,16.80
2023-03-31T22:03:48.999Z,27.03
2023-03-31T22:06:55.403Z,24.47
2023-03-31T22:10:01.786Z,14.77
2023-03-31T22:13:09.361Z,50.40
2023-03-31T22:16:18.530Z,22.77
2023-03-31T22:19:24.530Z,16.40
2023-03-31T22:22:30.961Z,16.70
2023-03-31T22:25:37.081Z,17.57
2023-03-31T22:28:44.742Z,16.23
2023-03-31T22:31:50.929Z,15.40
2023-03-31T22:34:57.296Z,15.77
2023-03-31T22:38:05.053Z,14.67
2023-03-31T22:41:13.644Z,14.73
2023-03-31T22:44:21.858Z,19.87
2023-03-31T22:47:28.272Z,20.57
2023-03-31T22:50:34.777Z,14.83
2023-03-31T22:53:40.967Z,15.70
2023-03-31T22:56:47.312Z,16.63
2023-03-31T22:59:54.823Z,15.87
2023-03-31T23:03:01.389Z,14.33
2023-03-31T23:06:08.619Z,13.50
2023-03-31T23:09:14.825Z,19.17
2023-03-31T23:12:20.932Z,17.30
2023-03-31T23:15:28.196Z,19.77
2023-03-31T23:18:34.496Z,15.63
2023-03-31T23:21:40.854Z,12.27
2023-03-31T23:24:46.867Z,11.93
2023-03-31T23:27:53.434Z,11.77
2023-03-31T23:31:01.096Z,8.70
2023-03-31T23:34:07.515Z,15.90
2023-03-31T23:37:16.681Z,15.70
2023-03-31T23:40:23.128Z,9.40
2023-03-31T23:43:30.394Z,7.60
2023-03-31T23:46:39.443Z,13.17
2023-03-31T23:49:45.752Z,9.10
2023-03-31T23:52:52.121Z,9.10
2023-03-31T23:56:01.419Z,12.50
2023-03-31T23:59:07.771Z,11.23
